Time;durP1;ratioP1;P1;durP2;ratioP2;P2;SDS_P1;SDS_P2;PMS_P1;PMS_P2;Temp;Humidity;BMP_temperature;BMP_pressure;BME280_temperature;BME280_humidity;BME280_pressure;Samples;Min_cycle;Max_cycle;Signal;HPM_P1;HPM_P2
2022/09/11 00:01:18;;;;;;;24.13;16.02;;;;;;;18.79;63.11;101635.97;4949026;28;124097;-80
2022/09/11 00:03:46;;;;;;;28.40;16.80;;;;;;;18.78;63.15;101638.75;4949623;28;114374;-80
2022/09/11 00:06:19;;;;;;;22.60;16.10;;;;;;;18.75;63.05;101645.19;4947792;28;112967;-80
2022/09/11 00:08:59;;;;;;;25.60;16.00;;;;;;;18.72;63.20;101650.75;4947471;28;123994;-80
2022/09/11 00:11:28;;;;;;;25.88;16.40;;;;;;;18.68;63.30;101649.22;4948080;28;123706;-77
2022/09/11 00:13:56;;;;;;;25.92;16.70;;;;;;;18.66;63.52;101652.00;4949571;28;114874;-79
2022/09/11 00:16:27;;;;;;;25.33;17.45;;;;;;;18.63;63.51;101646.88;4962540;28;113842;-79
2022/09/11 00:18:58;;;;;;;30.75;17.30;;;;;;;18.61;63.59;101653.28;4946583;28;122919;-79
2022/09/11 00:21:25;;;;;;;28.55;17.27;;;;;;;18.62;63.76;101652.34;4955109;28;124022;-80
2022/09/11 00:23:52;;;;;;;24.42;16.52;;;;;;;18.62;63.70;101657.69;4953587;28;114486;-79
2022/09/11 00:26:20;;;;;;;26.88;17.10;;;;;;;18.61;63.70;101655.97;4952695;28;113561;-79
2022/09/11 00:28:49;;;;;;;29.83;17.38;;;;;;;18.57;63.87;101652.66;4935527;28;123734;-80
2022/09/11 00:31:22;;;;;;;31.10;18.02;;;;;;;18.56;63.84;101656.28;4944887;28;123297;-76
2022/09/11 00:33:50;;;;;;;28.85;17.58;;;;;;;18.57;63.94;101651.75;4939366;28;114422;-79
2022/09/11 00:36:20;;;;;;;27.58;16.45;;;;;;;18.57;63.82;101651.75;4964459;28;114330;-79
2022/09/11 00:38:48;;;;;;;30.90;18.15;;;;;;;18.57;63.89;101646.41;4951206;28;125479;-79
2022/09/11 00:41:21;;;;;;;28.25;18.88;;;;;;;18.58;64.00;101658.88;4951997;28;124244;-80
2022/09/11 00:43:51;;;;;;;25.60;17.35;;;;;;;18.58;64.01;101653.50;4951635;28;112366;-80
2022/09/11 00:46:18;;;;;;;27.52;17.50;;;;;;;18.59;63.84;101655.19;4945774;28;114740;-77
2022/09/11 00:48:50;;;;;;;28.25;17.52;;;;;;;18.58;63.96;101658.88;4963304;28;124284;-77
2022/09/11 00:51:23;;;;;;;28.42;17.42;;;;;;;18.56;63.70;101664.31;4963932;28;123471;-78
2022/09/11 00:53:53;;;;;;;30.75;18.33;;;;;;;18.55;63.75;101656.38;4960942;28;114427;-77
2022/09/11 00:56:22;;;;;;;29.50;17.75;;;;;;;18.53;63.93;101661.84;4952481;28;112060;-76
2022/09/11 00:58:53;;;;;;;27.60;18.08;;;;;;;18.53;63.84;101650.25;4953175;28;124846;-76
2022/09/11 01:01:20;;;;;;;27.45;18.02;;;;;;;18.53;64.02;101655.63;4951181;28;123539;-77
2022/09/11 01:03:48;;;;;;;26.05;17.15;;;;;;;18.51;64.02;101652.19;4950612;28;113219;-77
2022/09/11 01:06:15;;;;;;;28.50;17.25;;;;;;;18.49;63.88;101653.13;4950145;28;113486;-76
2022/09/11 01:08:42;;;;;;;28.13;17.70;;;;;;;18.48;63.71;101648.75;4950289;28;123172;-77
2022/09/11 01:11:55;;;;;;;30.00;18.10;;;;;;;18.45;63.92;101659.66;4951138;28;123071;-79
2022/09/11 01:14:41;;;;;;;27.48;17.83;;;;;;;18.44;63.64;101663.31;4898729;28;114051;-77
2022/09/11 01:17:26;;;;;;;31.75;18.17;;;;;;;18.40;63.60;101656.44;4945376;28;114241;-78
2022/09/11 01:20:12;;;;;;;30.98;18.13;;;;;;;18.37;63.56;101667.34;4943569;28;123317;-76
2022/09/11 01:23:06;;;;;;;26.17;18.40;;;;;;;18.33;63.72;101665.84;4960543;28;123504;-76
2022/09/11 01:26:06;;;;;;;26.92;18.17;;;;;;;18.31;63.75;101662.41;4947543;28;114120;-77
2022/09/11 01:28:42;;;;;;;25.90;17.27;;;;;;;18.30;63.93;101666.03;4891791;28;115089;-79
2022/09/11 01:31:14;;;;;;;29.08;18.33;;;;;;;18.30;63.79;101666.03;4950025;28;123312;-78
2022/09/11 01:34:08;;;;;;;30.00;19.05;;;;;;;18.26;63.75;101659.13;4950733;28;122475;-78
2022/09/11 01:36:46;;;;;;;27.50;18.23;;;;;;;18.23;63.83;101664.69;4947127;28;114427;-77
2022/09/11 01:39:19;;;;;;;27.90;18.80;;;;;;;18.20;63.93;101664.91;4950763;28;113087;-77
2022/09/11 01:41:52;;;;;;;30.83;19.10;;;;;;;18.18;63.85;101666.81;4960763;28;123750;-77
2022/09/11 01:44:27;;;;;;;31.00;18.73;;;;;;;18.16;64.13;101674.97;4968426;28;122944;-79
2022/09/11 01:46:55;;;;;;;31.20;19.75;;;;;;;18.15;64.07;101675.91;4982685;28;112822;-78
2022/09/11 01:49:37;;;;;;;31.73;19.55;;;;;;;18.13;64.08;101676.97;4973852;28;112433;-79
2022/09/11 01:52:09;;;;;;;31.25;19.95;;;;;;;18.12;64.08;101683.28;4963891;28;122336;-77
2022/09/11 01:54:41;;;;;;;32.90;19.20;;;;;;;18.11;64.09;101681.56;4950866;28;124060;-78
2022/09/11 01:57:17;;;;;;;30.42;19.35;;;;;;;18.09;64.01;101690.56;4942066;28;114121;-78
2022/09/11 01:59:51;;;;;;;30.10;19.98;;;;;;;18.08;64.24;101688.84;4933337;28;115374;-77
2022/09/11 02:02:26;;;;;;;27.35;18.88;;;;;;;18.08;64.39;101688.84;4951438;28;123105;-76
2022/09/11 02:05:14;;;;;;;32.22;19.88;;;;;;;18.07;64.09;101695.16;4930901;28;122908;-79
2022/09/11 02:07:49;;;;;;;31.55;19.70;;;;;;;18.07;64.29;101702.34;4949408;28;113585;-76
2022/09/11 02:10:24;;;;;;;33.08;17.90;;;;;;;18.07;64.39;101699.66;4942114;28;113355;-77
2022/09/11 02:13:06;;;;;;;31.42;19.33;;;;;;;18.05;64.18;101699.75;4949391;28;123972;-78
2022/09/11 02:15:41;;;;;;;32.25;19.00;;;;;;;18.05;64.11;101705.13;4948504;28;124043;-78
2022/09/11 02:18:34;;;;;;;29.03;19.33;;;;;;;18.02;64.22;101707.97;4961284;28;114731;-78
2022/09/11 02:21:01;;;;;;;28.67;19.08;;;;;;;18.03;64.20;101707.03;4946305;28;112956;-77
2022/09/11 02:23:28;;;;;;;34.05;19.95;;;;;;;18.02;64.28;101699.94;4948741;28;123288;-77
2022/09/11 02:25:55;;;;;;;30.85;19.58;;;;;;;18.02;64.13;101694.59;4952240;28;123617;-78
2022/09/11 02:28:24;;;;;;;33.35;19.38;;;;;;;18.02;63.98;101705.31;4963284;28;114001;-77
2022/09/11 02:30:53;;;;;;;30.17;18.08;;;;;;;18.02;63.94;101709.81;4950695;28;113502;-78
2022/09/11 02:33:35;;;;;;;31.52;19.92;;;;;;;17.97;64.04;101707.44;4947631;28;124196;-77
2022/09/11 02:36:22;;;;;;;29.35;19.30;;;;;;;17.93;64.03;101716.59;4956923;28;123631;-78
2022/09/11 02:38:52;;;;;;;27.20;18.63;;;;;;;17.90;64.19;101709.63;4948440;28;114526;-78
2022/09/11 02:41:26;;;;;;;31.67;19.05;;;;;;;17.88;63.86;101708.00;4949292;28;113935;-78
2022/09/11 02:44:08;;;;;;;31.30;19.60;;;;;;;17.87;64.07;101709.81;4934051;28;123099;-77
2022/09/11 02:46:53;;;;;;;27.20;18.67;;;;;;;17.86;63.98;101704.56;4946432;28;123987;-76
2022/09/11 02:49:46;;;;;;;29.30;17.97;;;;;;;17.85;63.82;101700.13;4947668;28;114058;-77
2022/09/11 02:52:29;;;;;;;29.10;18.67;;;;;;;17.82;63.81;101702.97;4932502;28;114288;-79
2022/09/11 02:55:14;;;;;;;28.40;17.73;;;;;;;17.78;63.94;101706.81;4931195;28;123662;-78
2022/09/11 02:57:46;;;;;;;;;;;;;;;17.74;63.84;101716.00;4947607;28;123880;-79
2022/09/11 03:00:13;;;;;;;28.40;17.77;;;;;;;17.74;63.90;101721.34;4957135;28;113449;-78
2022/09/11 03:02:42;;;;;;;26.92;17.88;;;;;;;17.71;64.00;101717.06;4949639;28;113577;-79
2022/09/11 03:05:10;;;;;;;26.73;17.67;;;;;;;17.69;64.00;101719.81;4948012;28;124262;-78
2022/09/11 03:07:39;;;;;;;29.80;20.02;;;;;;;17.67;64.18;101724.41;4948577;28;123367;-78
2022/09/11 03:10:10;;;;;;;30.95;19.55;;;;;;;17.66;64.16;101714.63;4947367;28;114611;-79
2022/09/11 03:12:38;;;;;;;32.13;19.58;;;;;;;17.66;64.45;101722.66;4928126;28;114046;-79
2022/09/11 03:15:08;;;;;;;30.90;19.70;;;;;;;17.64;64.18;101731.78;4948639;28;123221;-77
2022/09/11 03:17:36;;;;;;;29.35;19.85;;;;;;;17.63;64.14;101730.91;4946686;28;123563;-78
2022/09/11 03:20:04;;;;;;;34.55;20.75;;;;;;;17.62;64.36;101729.19;4949115;28;113989;-79
2022/09/11 03:22:31;;;;;;;36.45;21.23;;;;;;;17.61;64.22;101722.13;4950618;28;114093;-82
2022/09/11 03:24:58;;;;;;;33.67;20.02;;;;;;;17.61;64.23;101727.47;4950283;28;123688;-80
2022/09/11 03:27:28;;;;;;;30.88;20.20;;;;;;;17.63;64.26;101741.63;4938682;28;122927;-80
2022/09/11 03:29:55;;;;;;;33.83;18.73;;;;;;;17.63;64.27;101736.28;4949050;28;113004;-80
2022/09/11 03:32:22;;;;;;;31.20;19.48;;;;;;;17.61;64.26;101732.81;4950393;28;113868;-78
2022/09/11 03:34:49;;;;;;;30.02;20.08;;;;;;;17.61;64.16;101726.59;4932152;28;123277;-79
2022/09/11 03:37:17;;;;;;;29.73;18.90;;;;;;;17.60;64.06;101728.41;4948735;28;123778;-78
2022/09/11 03:39:47;;;;;;;31.60;19.30;;;;;;;17.58;64.06;101727.66;4948917;28;113483;-79
2022/09/11 03:42:14;;;;;;;30.88;19.15;;;;;;;17.56;64.27;101723.34;4937356;28;111962;-79
2022/09/11 03:44:42;;;;;;;29.83;18.15;;;;;;;17.54;63.97;101726.13;4948823;28;123898;-79
2022/09/11 03:47:11;;;;;;;28.67;19.15;;;;;;;17.52;63.95;101733.38;4956863;28;123016;-78
2022/09/11 03:49:39;;;;;;;31.23;18.65;;;;;;;17.49;64.00;101728.19;4930588;28;113160;-80
2022/09/11 03:52:06;;;;;;;31.17;19.13;;;;;;;17.46;63.99;101733.72;4948471;28;114534;-79
2022/09/11 03:54:33;;;;;;;33.45;18.95;;;;;;;17.45;63.92;101732.03;4948149;28;124308;-79
2022/09/11 03:57:00;;;;;;;29.52;18.40;;;;;;;17.42;63.91;101737.53;4948068;28;123082;-78
2022/09/11 03:59:28;;;;;;;29.88;18.75;;;;;;;17.40;64.10;101734.09;4947744;28;114799;-78
2022/09/11 04:01:55;;;;;;;29.55;17.90;;;;;;;17.39;64.04;101737.75;4948088;28;114290;-78
2022/09/11 04:04:22;;;;;;;30.17;17.85;;;;;;;17.35;64.18;101746.88;4947672;28;124297;-78
2022/09/11 04:06:50;;;;;;;30.77;18.83;;;;;;;17.34;63.96;101739.81;4947205;28;123501;-78
2022/09/11 04:09:17;;;;;;;30.33;18.20;;;;;;;17.31;64.10;101749.78;4928782;28;113384;-79
2022/09/11 04:11:47;;;;;;;32.53;18.88;;;;;;;17.34;64.03;101747.88;4945442;28;114024;-79
2022/09/11 04:14:22;;;;;;;29.73;18.75;;;;;;;17.34;64.22;101750.53;4947917;28;123546;-79
2022/09/11 04:16:52;;;;;;;29.98;19.58;;;;;;;17.32;64.25;101748.78;4947534;28;123675;-79
2022/09/11 04:19:20;;;;;;;31.05;19.10;;;;;;;17.34;64.22;101755.91;4947853;28;113562;-78
2022/09/11 04:21:47;;;;;;;33.38;20.15;;;;;;;17.33;64.16;101747.00;4931527;28;113617;-78
2022/09/11 04:24:15;;;;;;;39.28;20.10;;;;;;;17.35;64.44;101757.59;4944603;28;124029;-79
2022/09/11 04:26:45;;;;;;;35.72;19.80;;;;;;;17.35;64.50;101757.59;4947045;28;123494;-80
2022/09/11 04:29:18;;;;;;;33.25;19.48;;;;;;;17.35;64.68;101757.59;4951097;28;114280;-79
2022/09/11 04:31:45;;;;;;;29.75;19.58;;;;;;;17.36;64.61;101762.03;4948655;28;113315;-79
2022/09/11 04:34:14;;;;;;;32.35;20.25;;;;;;;17.37;64.51;101755.72;4948718;28;123382;-79
2022/09/11 04:36:42;;;;;;;35.25;21.05;;;;;;;17.38;64.43;101746.72;4948167;28;123704;-78
2022/09/11 04:39:13;;;;;;;29.33;18.83;;;;;;;17.39;64.62;101753.81;4947524;28;112499;-78
2022/09/11 04:41:40;;;;;;;30.08;20.40;;;;;;;17.38;64.46;101746.72;4960015;28;113552;-79
2022/09/11 04:44:07;;;;;;;37.15;20.15;;;;;;;17.39;64.69;101753.81;4953215;28;122906;-78
2022/09/11 04:46:41;;;;;;;45.67;22.10;;;;;;;17.41;64.76;101751.91;4945087;28;123019;-79
2022/09/11 04:49:10;;;;;;;43.85;21.95;;;;;;;17.42;65.07;101753.63;4954585;28;114640;-78
2022/09/11 04:51:39;;;;;;;59.88;21.77;;;;;;;17.44;64.90;101757.94;4926110;28;114197;-78
2022/09/11 04:54:13;;;;;;;54.67;21.75;;;;;;;17.46;64.99;101749.78;4930373;28;124186;-78
2022/09/11 04:56:40;;;;;;;38.92;19.75;;;;;;;17.48;64.93;101753.28;4928901;28;123662;-78
2022/09/11 04:59:14;;;;;;;51.08;19.70;;;;;;;17.47;65.02;101756.88;4949678;28;113479;-79
2022/09/11 05:01:49;;;;;;;40.30;19.67;;;;;;;17.49;65.21;101749.63;4924346;28;112475;-78
2022/09/11 05:04:17;;;;;;;50.72;19.30;;;;;;;17.50;65.14;101752.22;4929275;28;123380;-80
2022/09/11 05:06:50;;;;;;;49.03;18.67;;;;;;;17.52;65.08;101752.13;4935353;28;123139;-78
2022/09/11 05:09:18;;;;;;;43.67;19.20;;;;;;;17.54;65.24;101757.38;4966063;28;113728;-78
2022/09/11 05:11:47;;;;;;;68.57;17.80;;;;;;;17.55;65.02;101754.59;4959085;28;113137;-77
2022/09/11 05:14:15;;;;;;;116.72;19.02;;;;;;;17.55;65.04;101757.28;4958927;28;122528;-78
2022/09/11 05:16:44;;;;;;;57.08;16.92;;;;;;;17.55;64.83;101759.09;4958828;28;122110;-78
2022/09/11 05:19:14;;;;;;;83.50;16.88;;;;;;;17.53;64.90;101764.56;4952848;28;114681;-78
2022/09/11 05:21:43;;;;;;;46.53;14.45;;;;;;;17.52;64.97;101768.19;4961999;28;113563;-77
2022/09/11 05:24:10;;;;;;;35.70;15.77;;;;;;;17.49;64.87;101771.03;4952237;28;123244;-76
2022/09/11 05:26:39;;;;;;;49.17;15.75;;;;;;;17.47;65.01;101772.97;4944527;28;123663;-78
2022/09/11 05:29:10;;;;;;;44.70;14.90;;;;;;;17.46;65.18;101773.91;4937984;28;114022;-77
2022/09/11 05:31:59;;;;;;;62.47;14.32;;;;;;;17.45;65.18;101780.22;4943807;28;115309;-78
2022/09/11 05:34:28;;;;;;;44.78;15.23;;;;;;;17.44;65.33;101789.19;4953293;28;123183;-79
2022/09/11 05:36:56;;;;;;;66.95;15.35;;;;;;;17.45;65.44;101796.28;4954778;28;123143;-78
2022/09/11 05:39:26;;;;;;;37.58;15.48;;;;;;;17.45;65.47;101801.66;4939544;28;114842;-80
2022/09/11 05:41:57;;;;;;;37.72;16.05;;;;;;;17.48;65.74;101801.47;4956564;28;114226;-79
2022/09/11 05:44:29;;;;;;;94.05;15.68;;;;;;;17.50;65.41;101804.94;4955908;28;123142;-80
2022/09/11 05:46:57;;;;;;;69.90;14.45;;;;;;;17.50;65.51;101804.94;4954030;28;123356;-79
2022/09/11 05:49:24;;;;;;;81.82;15.23;;;;;;;17.51;65.56;101812.00;4957279;28;113831;-79
2022/09/11 05:51:51;;;;;;;64.93;15.20;;;;;;;17.50;65.79;101815.66;4952480;28;113473;-79
2022/09/11 05:54:19;;;;;;;55.28;15.75;;;;;;;17.51;65.58;101814.66;4965969;28;123876;-80
2022/09/11 05:56:46;;;;;;;49.80;16.40;;;;;;;17.54;65.68;101819.88;4958026;28;121918;-80
2022/09/11 05:59:21;;;;;;;41.90;16.33;;;;;;;17.54;65.71;101822.53;4956735;28;113911;-81
2022/09/11 06:01:49;;;;;;;44.45;15.75;;;;;;;17.56;65.88;101817.94;4937389;28;113174;-82
2022/09/11 06:04:35;;;;;;;46.47;15.07;;;;;;;17.57;65.80;101822.34;4958061;28;122982;-81
2022/09/11 06:07:02;;;;;;;38.88;15.02;;;;;;;17.59;65.84;101825.78;4958668;28;123180;-81
2022/09/11 06:09:31;;;;;;;35.03;15.10;;;;;;;17.63;65.79;101837.19;4953571;28;112683;-82
2022/09/11 06:11:58;;;;;;;45.45;16.30;;;;;;;17.67;65.79;101844.97;4961813;28;113970;-79
2022/09/11 06:14:26;;;;;;;44.08;15.73;;;;;;;17.70;65.92;101844.78;4958151;28;124484;-80
2022/09/11 06:16:56;;;;;;;39.97;15.60;;;;;;;17.73;65.93;101853.63;4959132;28;123850;-81
2022/09/11 06:19:24;;;;;;;43.50;15.88;;;;;;;17.76;66.11;101861.44;4951066;28;113372;-80
2022/09/11 06:21:51;;;;;;;33.05;15.23;;;;;;;17.79;65.95;101851.41;4957943;28;113190;-82
2022/09/11 06:24:27;;;;;;;32.07;16.20;;;;;;;17.83;65.80;101860.13;4955465;28;123758;-79
2022/09/11 06:26:55;;;;;;;36.30;15.93;;;;;;;17.86;66.06;101860.00;4953165;28;123419;-80
2022/09/11 06:29:24;;;;;;;44.53;15.90;;;;;;;17.90;65.79;101861.53;4939055;28;115356;-81
2022/09/11 06:31:53;;;;;;;34.20;15.88;;;;;;;17.90;65.95;101861.53;4938020;28;113670;-81
2022/09/11 06:34:22;;;;;;;36.38;15.52;;;;;;;17.94;65.74;101857.72;4942944;28;122686;-80
2022/09/11 06:36:50;;;;;;;45.78;16.35;;;;;;;17.99;65.93;101861.00;4938158;28;123809;-79
2022/09/11 06:39:21;;;;;;;32.55;16.35;;;;;;;18.03;65.94;101867.88;4964440;28;113703;-80
2022/09/11 06:41:49;;;;;;;31.42;16.20;;;;;;;18.07;65.75;101864.06;4952904;28;113497;-80
2022/09/11 06:44:19;;;;;;;39.13;16.65;;;;;;;18.11;65.77;101864.75;4958331;28;123558;-80
2022/09/11 06:46:46;;;;;;;33.88;17.25;;;;;;;18.14;65.69;101858.31;4958940;28;122041;-80
2022/09/11 06:49:14;;;;;;;142.95;17.80;;;;;;;18.17;65.85;101864.34;4959393;28;114198;-81
2022/09/11 06:51:59;;;;;;;;;;;;;;;18.18;65.52;101862.56;4962587;28;114354;-80
2022/09/11 06:54:28;;;;;;;60.25;15.07;;;;;;;18.22;65.76;101861.41;4957842;28;123594;-81
2022/09/11 06:56:56;;;;;;;28.55;15.43;;;;;;;18.25;65.87;101867.47;4939258;28;123135;-80
2022/09/11 06:59:24;;;;;;;53.00;15.73;;;;;;;18.27;65.77;101875.38;4963597;28;113160;-80
2022/09/11 07:01:51;;;;;;;62.03;16.48;;;;;;;18.31;65.64;101865.34;4938352;28;112695;-82
2022/09/11 07:04:22;;;;;;;38.25;17.00;;;;;;;18.32;65.73;101877.78;4955017;28;122502;-80
2022/09/11 07:06:49;;;;;;;43.45;16.40;;;;;;;18.34;65.83;101871.38;4956362;28;122995;-79
2022/09/11 07:09:16;;;;;;;27.13;16.75;;;;;;;18.37;66.03;101871.19;4937613;28;113394;-81
2022/09/11 07:11:50;;;;;;;49.83;17.13;;;;;;;18.41;65.96;101864.69;4953476;28;113764;-80
2022/09/11 07:14:22;;;;;;;63.92;17.52;;;;;;;18.45;65.71;101863.53;4945311;28;123241;-81
2022/09/11 07:16:54;;;;;;;53.60;17.33;;;;;;;18.49;65.61;101869.56;4943829;28;122929;-81
2022/09/11 07:19:24;;;;;;;38.55;17.73;;;;;;;18.52;65.71;101866.69;4925786;28;114809;-81
2022/09/11 07:21:51;;;;;;;43.20;16.88;;;;;;;18.56;65.67;101870.06;4956054;28;115062;-79
2022/09/11 07:24:19;;;;;;;37.15;17.33;;;;;;;18.58;65.78;101863.63;4952062;28;122361;-80
2022/09/11 07:26:47;;;;;;;37.53;17.25;;;;;;;18.63;65.77;101868.72;4936161;28;123537;-80
2022/09/11 07:29:24;;;;;;;36.33;17.48;;;;;;;18.68;65.76;101874.66;4952888;28;113548;-80
2022/09/11 07:31:54;;;;;;;41.13;19.38;;;;;;;18.74;65.86;101868.91;4934682;28;114403;-82
2022/09/11 07:34:21;;;;;;;38.72;19.48;;;;;;;18.79;65.95;101873.97;4960478;28;122794;-81
2022/09/11 07:36:50;;;;;;;43.75;18.25;;;;;;;18.83;65.78;101876.38;4952321;28;123182;-81
2022/09/11 07:39:18;;;;;;;48.22;18.98;;;;;;;18.86;65.74;101870.84;4952953;28;112308;-80
2022/09/11 07:41:52;;;;;;;51.55;18.95;;;;;;;18.90;65.91;101873.34;4936519;28;112284;-79
2022/09/11 07:44:24;;;;;;;41.42;18.92;;;;;;;18.93;65.88;101878.50;4952519;28;123369;-79
2022/09/11 07:46:52;;;;;;;32.50;17.63;;;;;;;18.96;65.75;101886.34;4952841;28;123127;-81
2022/09/11 07:49:20;;;;;;;46.45;19.25;;;;;;;18.98;65.62;101887.13;4933839;28;113949;-80
2022/09/11 07:51:47;;;;;;;49.30;19.23;;;;;;;19.01;65.51;101886.94;4948285;28;113143;-80
2022/09/11 07:54:21;;;;;;;33.35;18.63;;;;;;;19.04;65.55;101889.41;4952904;28;123909;-81
2022/09/11 07:56:48;;;;;;;97.75;18.55;;;;;;;19.08;65.50;101893.63;4949783;28;122279;-81
2022/09/11 07:59:17;;;;;;;80.32;18.20;;;;;;;19.12;65.01;101900.53;4951608;28;114103;-83
2022/09/11 08:01:47;;;;;;;43.35;19.05;;;;;;;19.13;65.21;101890.66;4958569;28;112779;-83
2022/09/11 08:04:15;;;;;;;44.40;18.70;;;;;;;19.19;65.27;101900.97;4969427;28;123860;-85
2022/09/11 08:06:43;;;;;;;36.90;19.38;;;;;;;19.20;65.64;101898.22;4963983;28;122260;-82
2022/09/11 08:09:16;;;;;;;43.53;18.73;;;;;;;19.23;65.25;101903.38;4957175;28;114866;-84
2022/09/11 08:11:49;;;;;;;34.10;18.73;;;;;;;19.26;65.47;101903.16;4957708;28;113222;-84
2022/09/11 08:14:17;;;;;;;47.75;18.52;;;;;;;19.30;65.34;101908.34;4949801;28;123986;-82
2022/09/11 08:16:47;;;;;;;42.22;19.35;;;;;;;19.35;65.31;101911.63;4933473;28;123001;-83
2022/09/11 08:19:21;;;;;;;35.42;18.77;;;;;;;19.37;65.40;101921.28;4951484;28;113583;-83
2022/09/11 08:21:54;;;;;;;49.22;19.00;;;;;;;19.39;65.25;101913.13;4954121;28;113377;-81
2022/09/11 08:24:21;;;;;;;35.13;19.13;;;;;;;19.42;65.05;101912.91;4949388;28;122887;-84
2022/09/11 08:26:50;;;;;;;43.67;19.23;;;;;;;19.47;65.37;101918.84;4939967;28;123251;-81
2022/09/11 08:29:19;;;;;;;33.35;19.48;;;;;;;19.52;65.50;101919.41;4933823;28;113473;-79
2022/09/11 08:31:47;;;;;;;35.05;19.35;;;;;;;19.61;65.75;101924.19;4948449;28;113719;-83
2022/09/11 08:34:16;;;;;;;42.92;20.25;;;;;;;19.70;65.50;101922.69;4953040;28;123594;-82
2022/09/11 08:36:44;;;;;;;36.78;20.30;;;;;;;19.76;65.40;101921.47;4938410;28;123899;-80
2022/09/11 08:39:11;;;;;;;34.20;19.85;;;;;;;19.81;65.44;101930.09;4952100;28;112800;-85
2022/09/11 08:41:50;;;;;;;35.70;20.45;;;;;;;19.87;65.48;101924.28;4953958;28;112484;-82
2022/09/11 08:44:38;;;;;;;38.58;21.00;;;;;;;19.92;65.47;101922.16;4959211;28;122455;-84
2022/09/11 08:47:34;;;;;;;37.30;21.10;;;;;;;20.01;65.67;101924.25;4949374;28;123749;-82
2022/09/11 08:50:10;;;;;;;39.38;22.75;;;;;;;20.10;65.45;101924.56;4971812;28;112456;-82
2022/09/11 08:52:39;;;;;;;39.13;21.85;;;;;;;20.15;65.06;101927.81;4952899;28;112989;-81
2022/09/11 08:55:16;;;;;;;36.03;21.83;;;;;;;20.20;65.32;101931.06;4954840;28;123689;-83
2022/09/11 08:58:23;;;;;;;35.42;20.17;;;;;;;20.28;65.15;101934.06;4969270;28;122931;-83
2022/09/11 09:01:15;;;;;;;36.72;21.90;;;;;;;20.36;64.97;101931.75;4939902;28;113686;-82
2022/09/11 09:04:22;;;;;;;38.60;22.13;;;;;;;20.41;64.90;101934.94;4972488;28;113195;-81
2022/09/11 09:07:15;;;;;;;34.70;21.02;;;;;;;20.46;64.75;101931.97;4960449;28;124671;-81
2022/09/11 09:09:54;;;;;;;37.33;20.85;;;;;;;20.51;64.62;101945.06;4959489;28;122081;-79
2022/09/11 09:12:30;;;;;;;35.15;20.92;;;;;;;20.54;64.54;101942.19;4960637;28;114997;-80
2022/09/11 09:15:23;;;;;;;35.80;21.65;;;;;;;20.56;64.20;101948.31;4962882;28;112632;-79
2022/09/11 09:18:01;;;;;;;32.50;20.88;;;;;;;20.55;64.31;101941.19;4960761;28;122572;-79
2022/09/11 09:20:35;;;;;;;34.30;21.33;;;;;;;20.55;64.20;101941.19;4960108;28;123539;-77
2022/09/11 09:23:24;;;;;;;33.35;21.83;;;;;;;20.59;63.93;101948.13;4956924;28;114214;-77
2022/09/11 09:25:51;;;;;;;33.55;21.98;;;;;;;20.61;64.07;101946.22;4959768;28;113572;-78
2022/09/11 09:28:25;;;;;;;34.03;22.98;;;;;;;20.65;64.03;101947.72;4964749;28;121942;-78
2022/09/11 09:30:58;;;;;;;33.67;22.25;;;;;;;20.70;64.08;101952.75;4947774;28;122192;-78
2022/09/11 09:33:45;;;;;;;31.80;22.13;;;;;;;20.77;63.95;101952.22;4966014;28;112548;-78
2022/09/11 09:36:33;;;;;;;33.38;22.55;;;;;;;20.82;63.83;101948.38;4966621;28;113958;-78
2022/09/11 09:39:01;;;;;;;31.25;21.15;;;;;;;20.87;63.81;101952.44;4948336;28;122637;-78
2022/09/11 09:41:53;;;;;;;33.75;22.23;;;;;;;20.96;63.69;101961.69;4970244;28;123644;-78
2022/09/11 09:44:38;;;;;;;30.05;21.45;;;;;;;21.04;63.66;101959.34;4963989;28;113971;-78
2022/09/11 09:47:10;;;;;;;36.27;23.27;;;;;;;21.09;63.37;101946.38;4962264;28;112379;-77
2022/09/11 09:49:38;;;;;;;30.88;21.42;;;;;;;21.15;63.52;101956.72;4960241;28;124685;-78
2022/09/11 09:52:18;;;;;;;34.33;23.08;;;;;;;21.22;63.61;101950.88;4959588;28;123660;-77
2022/09/11 09:54:54;;;;;;;33.05;23.60;;;;;;;21.34;63.64;101960.75;4958320;28;114714;-80
2022/09/11 09:57:24;;;;;;;32.42;23.02;;;;;;;21.44;63.35;101961.84;4959995;28;115632;-77
2022/09/11 10:00:00;;;;;;;31.05;22.92;;;;;;;21.52;62.72;101963.97;4958309;28;126081;-78
2022/09/11 10:02:57;;;;;;;33.15;22.45;;;;;;;21.54;62.03;101957.50;4943890;28;122294;-78
2022/09/11 10:05:30;;;;;;;34.00;23.42;;;;;;;21.52;62.38;101951.34;4952109;28;113919;-78
2022/09/11 10:08:04;;;;;;;35.92;23.92;;;;;;;21.58;62.66;101956.28;4952427;28;113550;-77
2022/09/11 10:10:39;;;;;;;31.65;21.95;;;;;;;21.68;62.45;101961.00;4951063;28;122301;-77
2022/09/11 10:13:19;;;;;;;37.05;23.60;;;;;;;21.71;61.71;101953.53;4957333;28;123119;-78
2022/09/11 10:15:48;;;;;;;30.58;22.90;;;;;;;21.72;61.54;101962.50;4952153;28;114260;-77
2022/09/11 10:18:31;;;;;;;31.80;22.00;;;;;;;21.70;61.58;101946.44;4940565;28;112375;-77
2022/09/11 10:21:10;;;;;;;33.97;22.98;;;;;;;21.73;61.59;101953.44;4953657;28;124509;-78
2022/09/11 10:24:05;;;;;;;31.17;22.77;;;;;;;21.78;61.85;101959.34;4949675;28;123003;-78
2022/09/11 10:26:49;;;;;;;35.42;23.45;;;;;;;21.83;61.50;101961.69;4950256;28;114275;-77
2022/09/11 10:29:23;;;;;;;32.15;23.40;;;;;;;21.84;61.43;101963.44;4955922;28;112905;-78
2022/09/11 10:31:55;;;;;;;32.55;22.77;;;;;;;21.85;61.62;101974.09;4954740;28;125067;-78
2022/09/11 10:34:25;;;;;;;32.33;23.17;;;;;;;21.89;61.38;101970.19;4955627;28;124366;-78
2022/09/11 10:36:54;;;;;;;31.25;23.20;;;;;;;21.93;61.38;101968.97;4938628;28;113306;-78
2022/09/11 10:39:25;;;;;;;32.50;22.15;;;;;;;21.97;61.06;101975.88;4955503;28;114169;-77
2022/09/11 10:41:57;;;;;;;30.58;22.58;;;;;;;22.02;60.96;101969.25;4954374;28;124004;-78
2022/09/11 10:44:27;;;;;;;31.10;23.35;;;;;;;22.08;61.02;101958.03;4957027;28;124394;-78
2022/09/11 10:47:14;;;;;;;30.58;22.90;;;;;;;22.15;60.55;101968.22;4952067;28;115158;-78
2022/09/11 10:49:41;;;;;;;30.42;23.23;;;;;;;22.19;60.90;101958.06;4944562;28;114194;-77
2022/09/11 10:52:08;;;;;;;28.55;22.38;;;;;;;22.27;60.46;101961.03;4942169;28;122591;-78
2022/09/11 10:54:43;;;;;;;28.05;21.63;;;;;;;22.32;60.05;101955.28;4962238;28;123164;-78
2022/09/11 10:57:17;;;;;;;33.05;23.15;;;;;;;22.38;60.06;101959.34;4950755;28;114976;-78
2022/09/11 10:59:56;;;;;;;26.42;21.73;;;;;;;22.44;59.79;101954.34;4939790;28;113764;-77
2022/09/11 11:02:27;;;;;;;29.58;23.10;;;;;;;22.56;59.64;101949.81;4950744;28;123428;-76
2022/09/11 11:04:59;;;;;;;30.30;21.02;;;;;;;22.67;59.71;101948.97;4950493;28;123685;-78
2022/09/11 11:07:41;;;;;;;25.20;19.95;;;;;;;22.79;58.93;101944.44;4950256;28;113974;-77
2022/09/11 11:10:16;;;;;;;26.48;19.10;;;;;;;22.91;58.90;101949.72;4952383;28;113902;-77
2022/09/11 11:13:06;;;;;;;22.27;18.27;;;;;;;23.01;58.70;101949.84;4951485;28;125601;-78
2022/09/11 11:16:00;;;;;;;23.48;16.35;;;;;;;23.16;58.54;101955.03;4946374;28;123791;-77
2022/09/11 11:18:48;;;;;;;18.65;14.00;;;;;;;23.26;57.94;101956.00;4937740;28;112475;-78
2022/09/11 11:21:45;;;;;;;13.88;11.02;;;;;;;23.35;57.98;101952.56;4961513;28;113969;-78
2022/09/11 11:24:24;;;;;;;14.73;11.38;;;;;;;23.43;57.38;101955.50;4951944;28;124351;-77
2022/09/11 11:27:16;;;;;;;14.80;11.50;;;;;;;23.49;57.33;101952.28;4951656;28;123918;-78
2022/09/11 11:30:13;;;;;;;21.23;14.60;;;;;;;23.57;57.55;101957.06;4958025;28;112425;-77